Home > Products > Valid Products > TAF

000
FTUS45 KBYZ 300523
TAFBIL
TAF
KBIL 300523Z 3006/3106 14006KT P6SM FEW100
     FM301600 11008KT P6SM FEW100
     FM310200 14008KT P6SM FEW100=



000
FTUS45 KBYZ 300523
TAFMLS
TAF
KMLS 300523Z 3006/3106 06008KT P6SM FEW100
     FM300900 VRB04KT P6SM SKC
     FM301600 08010KT P6SM SKC=



000
FTUS45 KBYZ 300523
TAFSHR
TAF
KSHR 300523Z 3006/3106 VRB04KT P6SM SKC=



000
FTUS45 KBYZ 300523
TAFLVM
TAF
KLVM 300523Z 3006/3106 VRB06KT P6SM SKC
     FM301500 09011KT P6SM SCT100=



000
FTUS45 KBYZ 292323
TAFMLS
TAF
KMLS 292323Z 3000/3024 08006KT P6SM FEW100
     FM300300 12004KT P6SM SKC=



000
FTUS45 KBYZ 292323
TAFLVM
TAF
KLVM 292323Z 3000/3024 06011KT P6SM VCTS BKN100CB
     FM300300 10010KT P6SM SCT100
     FM300600 10006KT P6SM FEW100
     FM300900 VRB05KT P6SM SKC
     FM301800 15008KT P6SM SCT100=



000
FTUS45 KBYZ 292323
TAFBIL
TAF
KBIL 292323Z 3000/3024 08012G17KT P6SM VCSH SCT100
     FM300200 09006KT P6SM FEW100
     FM300600 12006KT P6SM SKC
     FM301800 14008KT P6SM FEW100=



000
FTUS45 KBYZ 292323
TAFSHR
TAF
KSHR 292323Z 3000/3024 14011KT P6SM VCTS BKN100CB
     FM300300 VRB04KT P6SM SCT100
     FM300600 VRB04KT P6SM SKC=



000
FTUS45 KBYZ 292323
TAFLVM
TAF
KLVM 292323Z 3000/3024 06011KT P6SM VCTS BKN100CB
     FM300300 10010KT P6SM SCT100
     FM300600 10006KT P6SM FEW100
     FM300900 VRB05KT P6SM SKC
     FM301800 15008KT P6SM SCT100=



000
FTUS45 KBYZ 292323
TAFBIL
TAF
KBIL 292323Z 3000/3024 08012G17KT P6SM VCSH SCT100
     FM300200 09006KT P6SM FEW100
     FM300600 12006KT P6SM SKC
     FM301800 14008KT P6SM FEW100=



000
FTUS45 KBYZ 292323
TAFMLS
TAF
KMLS 292323Z 3000/3024 08006KT P6SM FEW100
     FM300300 12004KT P6SM SKC=



000
FTUS45 KBYZ 292323
TAFSHR
TAF
KSHR 292323Z 3000/3024 14011KT P6SM VCTS BKN100CB
     FM300300 VRB04KT P6SM SCT100
     FM300600 VRB04KT P6SM SKC=



000
FTUS45 KBYZ 291757 RRA
TAFBIL

TAF
KBIL 291757Z 2918/3018 10006KT P6SM SCT100
     FM292000 06012G18KT P6SM VCSH SCT120
     FM300200 09006KT P6SM FEW150=



000
FTUS45 KBYZ 291757 RRA
TAFBIL

TAF
KBIL 291757Z 2918/3018 10006KT P6SM SCT100
     FM292000 06012G18KT P6SM VCSH SCT120
     FM300200 09006KT P6SM FEW150=



000
FTUS45 KBYZ 291749
TAFBIL
TAF
KBIL 291749Z 2918/3018 10006KT P6SM SCT100
     FM292000 06012G18KT P6SM VCSH SCT120
     FM300200 09006KT P6SM FEW150=



000
FTUS45 KBYZ 291749
TAFSHR
TAF
KSHR 291749Z 2918/3018 13005KT P6SM VCSH SCT080 BKN100
     FM300400 VRB04KT P6SM FEW080 BKN150=



000
FTUS45 KBYZ 291749
TAFMLS
TAF
KMLS 291749Z 2918/3018 VRB05KT P6SM SCT100
     FM292000 06009KT P6SM SKC=



000
FTUS45 KBYZ 291749
TAFLVM
TAF
KLVM 291749Z 2918/3018 09011KT P6SM SCT120
     FM292100 08015KT P6SM VCSH BKN100
     FM300300 10010KT P6SM FEW150=



000
FTUS45 KBYZ 291336 AAA
TAFMLS
TAF AMD
KMLS 291336Z 2914/3012 09007KT P6SM VCSH SCT100 BKN150
     FM292300 07007KT P6SM SCT100=



000
FTUS45 KBYZ 291336 AAA
TAFMLS
TAF AMD
KMLS 291336Z 2914/3012 09007KT P6SM VCSH SCT100 BKN150
     FM292300 07007KT P6SM SCT100=



000
FTUS45 KBYZ 291120
TAFSHR
TAF
KSHR 291120Z 2912/3012 VRB05KT P6SM VCSH SCT070 OVC100
     FM291600 20009KT P6SM VCSH SCT080 SCT200
     FM292300 VRB06KT P6SM FEW080 BKN150=



000
FTUS45 KBYZ 291120
TAFBIL
TAF
KBIL 291120Z 2912/3012 VRB06KT P6SM VCSH BKN100 OVC200
     FM291800 10006KT P6SM VCTS SCT080CB
     FM292300 14011KT P6SM SCT060 BKN150=



000
FTUS45 KBYZ 291120
TAFLVM
TAF
KLVM 291120Z 2912/3012 VRB05KT P6SM VCSH FEW070 SCT100
     FM291700 08011KT P6SM VCTS SCT080CB BKN150
     FM292300 08015KT P6SM FEW100=



000
FTUS45 KBYZ 291120
TAFMLS
TAF
KMLS 291120Z 2912/3012 15007KT P6SM FEW200
     FM291600 09009KT P6SM VCSH SCT100
     FM292300 07007KT P6SM FEW080=



000
FTUS45 KBYZ 291120
TAFMLS
TAF
KMLS 291120Z 2912/3012 15007KT P6SM FEW200
     FM291600 09009KT P6SM VCSH SCT100
     FM292300 07007KT P6SM FEW080=



000
FTUS45 KBYZ 291120
TAFLVM
TAF
KLVM 291120Z 2912/3012 VRB05KT P6SM VCSH FEW070 SCT100
     FM291700 08011KT P6SM VCTS SCT080CB BKN150
     FM292300 08015KT P6SM FEW100=



000
FTUS45 KBYZ 291120
TAFSHR
TAF
KSHR 291120Z 2912/3012 VRB05KT P6SM VCSH SCT070 OVC100
     FM291600 20009KT P6SM VCSH SCT080 SCT200
     FM292300 VRB06KT P6SM FEW080 BKN150=



000
FTUS45 KBYZ 291120
TAFBIL
TAF
KBIL 291120Z 2912/3012 VRB06KT P6SM VCSH BKN100 OVC200
     FM291800 10006KT P6SM VCTS SCT080CB
     FM292300 14011KT P6SM SCT060 BKN150=



000
FTUS45 KBYZ 290520
TAFSHR
TAF
KSHR 290520Z 2906/3006 VRB05KT P6SM VCTS SCT060CB BKN120
     FM291200 VRB05KT P6SM VCSH BKN050 OVC150
     FM291600 20009KT P6SM VCSH SCT080 SCT200
     FM292300 VRB06KT P6SM FEW080 BKN150=



000
FTUS45 KBYZ 290520
TAFLVM
TAF
KLVM 290520Z 2906/3006 VRB05KT P6SM VCSH FEW070 SCT100 BKN200
     FM291700 08011KT P6SM VCTS SCT080CB BKN150
     FM292300 08015KT P6SM FEW100=



000
FTUS45 KBYZ 290520
TAFMLS
TAF
KMLS 290520Z 2906/3006 10007KT P6SM FEW200
     FM291600 09009KT P6SM VCSH SCT100
     FM292300 07007KT P6SM FEW080=



000
FTUS45 KBYZ 290520
TAFBIL
TAF
KBIL 290520Z 2906/3006 06007KT P6SM SCT100 BKN200
     FM290900 08007KT P6SM VCSH BKN100 OVC200
     FM291800 10006KT P6SM VCTS SCT080CB
     FM292300 14011KT P6SM SCT060 BKN150=



000
FTUS45 KBYZ 290520
TAFMLS
TAF
KMLS 290520Z 2906/3006 10007KT P6SM FEW200
     FM291600 09009KT P6SM VCSH SCT100
     FM292300 07007KT P6SM FEW080=



000
FTUS45 KBYZ 290520
TAFLVM
TAF
KLVM 290520Z 2906/3006 VRB05KT P6SM VCSH FEW070 SCT100 BKN200
     FM291700 08011KT P6SM VCTS SCT080CB BKN150
     FM292300 08015KT P6SM FEW100=



000
FTUS45 KBYZ 290520
TAFSHR
TAF
KSHR 290520Z 2906/3006 VRB05KT P6SM VCTS SCT060CB BKN120
     FM291200 VRB05KT P6SM VCSH BKN050 OVC150
     FM291600 20009KT P6SM VCSH SCT080 SCT200
     FM292300 VRB06KT P6SM FEW080 BKN150=



000
FTUS45 KBYZ 290520
TAFBIL
TAF
KBIL 290520Z 2906/3006 06007KT P6SM SCT100 BKN200
     FM290900 08007KT P6SM VCSH BKN100 OVC200
     FM291800 10006KT P6SM VCTS SCT080CB
     FM292300 14011KT P6SM SCT060 BKN150=



000
FTUS45 KBYZ 282320
TAFBIL
TAF
KBIL 282320Z 2900/2924 05015KT P6SM FEW100 SCT200
     FM290300 08007KT P6SM SCT100 BKN200
     FM290900 08007KT P6SM VCSH BKN100 OVC200
     FM291600 10009KT P6SM SCT100=



000
FTUS45 KBYZ 282320
TAFBIL
TAF
KBIL 282320Z 2900/2924 05015KT P6SM FEW100 SCT200
     FM290300 08007KT P6SM SCT100 BKN200
     FM290900 08007KT P6SM VCSH BKN100 OVC200
     FM291600 10009KT P6SM SCT100=



000
FTUS45 KBYZ 282320
TAFMLS
TAF
KMLS 282320Z 2900/2924 05014KT P6SM FEW200
     FM290300 07008KT P6SM SCT200=



000
FTUS45 KBYZ 282320
TAFSHR
TAF
KSHR 282320Z 2900/2924 VRB05KT P6SM FEW060 SCT100 BKN200
     FM290600 VRB05KT P6SM VCTS SCT060CB BKN120
     FM291200 VRB05KT P6SM VCSH BKN050 OVC150
     FM292100 VRB05KT P6SM SCT080 SCT200=



000
FTUS45 KBYZ 282320
TAFLVM
TAF
KLVM 282320Z 2900/2924 10010KT P6SM VCTS FEW070CB SCT100 BKN200
     FM290600 08006KT P6SM VCSH SCT080 BKN150
     FM291400 08012KT P6SM SCT100=



000
FTUS45 KBYZ 282320
TAFLVM
TAF
KLVM 282320Z 2900/2924 10010KT P6SM VCTS FEW070CB SCT100 BKN200
     FM290600 08006KT P6SM VCSH SCT080 BKN150
     FM291400 08012KT P6SM SCT100=



000
FTUS45 KBYZ 282320
TAFMLS
TAF
KMLS 282320Z 2900/2924 05014KT P6SM FEW200
     FM290300 07008KT P6SM SCT200=



000
FTUS45 KBYZ 282320
TAFSHR
TAF
KSHR 282320Z 2900/2924 VRB05KT P6SM FEW060 SCT100 BKN200
     FM290600 VRB05KT P6SM VCTS SCT060CB BKN120
     FM291200 VRB05KT P6SM VCSH BKN050 OVC150
     FM292100 VRB05KT P6SM SCT080 SCT200=



000
FTUS45 KBYZ 281728
TAFBIL
TAF
KBIL 281728Z 2818/2918 VRB04KT P6SM FEW200 FEW250
     FM282000 08007KT P6SM SCT150
     FM282200 09015KT P6SM BKN150
     FM290600 09006KT P6SM SCT120
     FM291200 VRB05KT P6SM FEW120=



000
FTUS45 KBYZ 281728
TAFLVM
TAF
KLVM 281728Z 2818/2918 07005KT P6SM BKN100
     FM282100 09010KT P6SM VCTS BKN080CB
     FM290300 11010KT P6SM BKN100
     FM290900 VRB05KT P6SM SCT100=



000
FTUS45 KBYZ 281728
TAFBIL
TAF
KBIL 281728Z 2818/2918 VRB04KT P6SM FEW200 FEW250
     FM282000 08007KT P6SM SCT150
     FM282200 09015KT P6SM BKN150
     FM290600 09006KT P6SM SCT120
     FM291200 VRB05KT P6SM FEW120=



000
FTUS45 KBYZ 281728
TAFLVM
TAF
KLVM 281728Z 2818/2918 07005KT P6SM BKN100
     FM282100 09010KT P6SM VCTS BKN080CB
     FM290300 11010KT P6SM BKN100
     FM290900 VRB05KT P6SM SCT100=



000
FTUS45 KBYZ 281728
TAFMLS
TAF
KMLS 281728Z 2818/2918 VRB03KT P6SM SKC
     FM281900 08010KT P6SM FEW150
     FM290300 VRB04KT P6SM SKC=



000
FTUS45 KBYZ 281728
TAFSHR
TAF
KSHR 281728Z 2818/2918 VRB03KT P6SM FEW150
     FM282300 10010KT P6SM SCT120
     FM290600 VRB04KT P6SM SKC=



000
FTUS45 KBYZ 281728
TAFSHR
TAF
KSHR 281728Z 2818/2918 VRB03KT P6SM FEW150
     FM282300 10010KT P6SM SCT120
     FM290600 VRB04KT P6SM SKC=



000
FTUS45 KBYZ 281728
TAFMLS
TAF
KMLS 281728Z 2818/2918 VRB03KT P6SM SKC
     FM281900 08010KT P6SM FEW150
     FM290300 VRB04KT P6SM SKC=



000
FTUS45 KBYZ 281120
TAFMLS
TAF
KMLS 281120Z 2812/2912 16008KT P6SM SKC
     FM281900 08010KT P6SM SCT150=



000
FTUS45 KBYZ 281120
TAFMLS
TAF
KMLS 281120Z 2812/2912 16008KT P6SM SKC
     FM281900 08010KT P6SM SCT150=



000
FTUS45 KBYZ 281120
TAFSHR
TAF
KSHR 281120Z 2812/2912 VRB05KT P6SM SCT200
     FM281700 09008KT P6SM SCT150
     FM282300 10010KT P6SM VCTS BKN120CB=



000
FTUS45 KBYZ 281120
TAFLVM
TAF
KLVM 281120Z 2812/2912 VRB05KT P6SM SKC
     FM281400 09007KT P6SM BKN150
     FM282100 09010KT P6SM VCTS BKN120CB
     FM290300 09014KT P6SM SCT130=



000
FTUS45 KBYZ 281120
TAFBIL
TAF
KBIL 281120Z 2812/2912 VRB06KT P6SM SKC
     FM281700 09010KT P6SM BKN150
     FM290100 09015KT P6SM BKN150=



000
FTUS45 KBYZ 281120
TAFBIL
TAF
KBIL 281120Z 2812/2912 VRB06KT P6SM SKC
     FM281700 09010KT P6SM BKN150
     FM290100 09015KT P6SM BKN150=



000
FTUS45 KBYZ 281120
TAFSHR
TAF
KSHR 281120Z 2812/2912 VRB05KT P6SM SCT200
     FM281700 09008KT P6SM SCT150
     FM282300 10010KT P6SM VCTS BKN120CB=



000
FTUS45 KBYZ 281120
TAFLVM
TAF
KLVM 281120Z 2812/2912 VRB05KT P6SM SKC
     FM281400 09007KT P6SM BKN150
     FM282100 09010KT P6SM VCTS BKN120CB
     FM290300 09014KT P6SM SCT130=



000
FTUS45 KBYZ 280537
TAFSHR
TAF
KSHR 280537Z 2806/2906 VRB05KT P6SM SCT200
     FM281700 09008KT P6SM SCT150
     FM282300 10010KT P6SM VCTS BKN120CB=



000
FTUS45 KBYZ 280537
TAFMLS
TAF
KMLS 280537Z 2806/2906 10006KT P6SM SKC
     FM281900 08010KT P6SM SCT150=



000
FTUS45 KBYZ 280537
TAFBIL
TAF
KBIL 280537Z 2806/2906 07008KT P6SM SKC
     FM281100 VRB06KT P6SM SKC
     FM281700 09010KT P6SM BKN150
     FM290100 09015KT P6SM BKN150=



000
FTUS45 KBYZ 280537
TAFLVM
TAF
KLVM 280537Z 2806/2906 10008KT P6SM SKC
     FM281200 09007KT P6SM BKN150
     FM282100 09010KT P6SM VCTS BKN120CB
     FM290300 09014KT P6SM SCT130=



000
FTUS45 KBYZ 280537
TAFSHR
TAF
KSHR 280537Z 2806/2906 VRB05KT P6SM SCT200
     FM281700 09008KT P6SM SCT150
     FM282300 10010KT P6SM VCTS BKN120CB=



000
FTUS45 KBYZ 280537
TAFLVM
TAF
KLVM 280537Z 2806/2906 10008KT P6SM SKC
     FM281200 09007KT P6SM BKN150
     FM282100 09010KT P6SM VCTS BKN120CB
     FM290300 09014KT P6SM SCT130=



000
FTUS45 KBYZ 280537
TAFMLS
TAF
KMLS 280537Z 2806/2906 10006KT P6SM SKC
     FM281900 08010KT P6SM SCT150=



000
FTUS45 KBYZ 280537
TAFBIL
TAF
KBIL 280537Z 2806/2906 07008KT P6SM SKC
     FM281100 VRB06KT P6SM SKC
     FM281700 09010KT P6SM BKN150
     FM290100 09015KT P6SM BKN150=



000
FTUS45 KBYZ 272329
TAFSHR
TAF
KSHR 272329Z 2800/2824 06005KT P6SM SCT200=



000
FTUS45 KBYZ 272329
TAFBIL
TAF
KBIL 272329Z 2800/2824 07012KT P6SM SKC
     FM280600 12006KT P6SM SKC
     FM281500 09012KT P6SM BKN150=



000
FTUS45 KBYZ 272329
TAFLVM
TAF
KLVM 272329Z 2800/2824 12008KT P6SM SKC
     FM281200 09007KT P6SM BKN150
     FM282100 09010KT P6SM VCTS BKN120CB=



000
FTUS45 KBYZ 272329
TAFMLS
TAF
KMLS 272329Z 2800/2824 04006KT P6SM SKC
     FM280400 15006KT P6SM SKC
     FM281900 10010KT P6SM SCT200=



000
FTUS45 KBYZ 272329
TAFBIL
TAF
KBIL 272329Z 2800/2824 07012KT P6SM SKC
     FM280600 12006KT P6SM SKC
     FM281500 09012KT P6SM BKN150=



000
FTUS45 KBYZ 272329
TAFMLS
TAF
KMLS 272329Z 2800/2824 04006KT P6SM SKC
     FM280400 15006KT P6SM SKC
     FM281900 10010KT P6SM SCT200=



000
FTUS45 KBYZ 272329
TAFSHR
TAF
KSHR 272329Z 2800/2824 06005KT P6SM SCT200=



000
FTUS45 KBYZ 272329
TAFLVM
TAF
KLVM 272329Z 2800/2824 12008KT P6SM SKC
     FM281200 09007KT P6SM BKN150
     FM282100 09010KT P6SM VCTS BKN120CB=



000
FTUS45 KBYZ 272303 AAA
TAFBIL
TAF AMD
KBIL 272303Z 2723/2818 06012KT P6SM SKC=



000
FTUS45 KBYZ 272303 AAA
TAFBIL
TAF AMD
KBIL 272303Z 2723/2818 06012KT P6SM SKC=



000
FTUS45 KBYZ 271723
TAFBIL
TAF
KBIL 271723Z 2718/2818 VRB04KT P6SM SKC
     FM272100 10007KT P6SM SKC=



000
FTUS45 KBYZ 271723
TAFMLS
TAF
KMLS 271723Z 2718/2818 01008KT P6SM SKC
     FM280300 10009KT P6SM SKC=



000
FTUS45 KBYZ 271723
TAFSHR
TAF
KSHR 271723Z 2718/2818 07006KT P6SM SKC=



000
FTUS45 KBYZ 271723
TAFMLS
TAF
KMLS 271723Z 2718/2818 01008KT P6SM SKC
     FM280300 10009KT P6SM SKC=



000
FTUS45 KBYZ 271723
TAFLVM
TAF
KLVM 271723Z 2718/2818 VRB03KT P6SM SKC
     FM272200 08010KT P6SM SKC=



000
FTUS45 KBYZ 271723
TAFLVM
TAF
KLVM 271723Z 2718/2818 VRB03KT P6SM SKC
     FM272200 08010KT P6SM SKC=



000
FTUS45 KBYZ 271723
TAFBIL
TAF
KBIL 271723Z 2718/2818 VRB04KT P6SM SKC
     FM272100 10007KT P6SM SKC=



000
FTUS45 KBYZ 271723
TAFSHR
TAF
KSHR 271723Z 2718/2818 07006KT P6SM SKC=



000
FTUS45 KBYZ 271120
TAFLVM
TAF
KLVM 271120Z 2712/2812 VRB06KT P6SM SKC
     FM271500 09011KT P6SM SKC
     FM280200 08013KT P6SM SKC=



000
FTUS45 KBYZ 271120
TAFMLS
TAF
KMLS 271120Z 2712/2812 29008KT P6SM SKC
     FM280300 08009KT P6SM SKC=



000
FTUS45 KBYZ 271120
TAFLVM
TAF
KLVM 271120Z 2712/2812 VRB06KT P6SM SKC
     FM271500 09011KT P6SM SKC
     FM280200 08013KT P6SM SKC=



000
FTUS45 KBYZ 271120
TAFMLS
TAF
KMLS 271120Z 2712/2812 29008KT P6SM SKC
     FM280300 08009KT P6SM SKC=



000
FTUS45 KBYZ 271120
TAFSHR
TAF
KSHR 271120Z 2712/2812 VRB05KT P6SM SKC
     FM271500 10008KT P6SM SKC=



000
FTUS45 KBYZ 271120
TAFSHR
TAF
KSHR 271120Z 2712/2812 VRB05KT P6SM SKC
     FM271500 10008KT P6SM SKC=



000
FTUS45 KBYZ 271120
TAFBIL
TAF
KBIL 271120Z 2712/2812 VRB06KT P6SM SKC
     FM271500 09010KT P6SM SKC=



000
FTUS45 KBYZ 271120
TAFBIL
TAF
KBIL 271120Z 2712/2812 VRB06KT P6SM SKC
     FM271500 09010KT P6SM SKC=



    US Dept of Commerce
    National Oceanic and Atmospheric Administration
    National Weather Service
    1325 East West Highway
    Silver Spring, MD 20910
    Page Author: NWS Internet Services Team
Disclaimer
Information Quality
Credits
Glossary
Privacy Policy
Freedom of Information Act (FOIA)
About Us
Career Opportunities